createdAt,value
2022-10-09T00:01:16.948Z,7.37
2022-10-09T00:03:47.272Z,11.13
2022-10-09T00:06:18.247Z,10.20
2022-10-09T00:08:47.618Z,7.70
2022-10-09T00:11:17.807Z,15.80
2022-10-09T00:13:45.685Z,15.20
2022-10-09T00:16:15.464Z,10.63
2022-10-09T00:18:43.354Z,7.43
2022-10-09T00:21:19.269Z,8.37
2022-10-09T00:23:49.014Z,15.53
2022-10-09T00:26:16.661Z,38.40
2022-10-09T00:28:44.546Z,16.80
2022-10-09T00:31:12.865Z,11.07
2022-10-09T00:33:41.112Z,13.80
2022-10-09T00:36:10.610Z,12.23
2022-10-09T00:38:38.565Z,11.23
2022-10-09T00:41:08.186Z,10.87
2022-10-09T00:43:42.080Z,12.17
2022-10-09T00:46:18.514Z,11.83
2022-10-09T00:48:46.883Z,11.43
2022-10-09T00:51:14.667Z,9.57
2022-10-09T00:53:42.653Z,14.00
2022-10-09T00:56:11.815Z,9.87
2022-10-09T00:58:39.418Z,12.93
2022-10-09T01:01:07.321Z,12.70
2022-10-09T01:03:35.034Z,9.63
2022-10-09T01:06:12.892Z,11.13
2022-10-09T01:08:48.853Z,12.53
2022-10-09T01:11:27.552Z,11.00
2022-10-09T01:14:02.201Z,11.90
2022-10-09T01:16:35.306Z,10.27
2022-10-09T01:19:12.208Z,10.87
2022-10-09T01:21:44.123Z,13.23
2022-10-09T01:24:25.740Z,8.50
2022-10-09T01:27:03.436Z,13.40
2022-10-09T01:29:36.969Z,10.73
2022-10-09T01:32:06.597Z,14.87
2022-10-09T01:34:34.722Z,17.00
2022-10-09T01:37:03.260Z,9.50
2022-10-09T01:39:33.185Z,10.27
2022-10-09T01:42:03.009Z,9.30
2022-10-09T01:44:33.297Z,11.03
2022-10-09T01:47:02.013Z,9.27
2022-10-09T01:49:40.245Z,13.87
2022-10-09T01:52:19.349Z,8.40
2022-10-09T01:54:55.257Z,8.30
2022-10-09T01:57:30.265Z,9.37
2022-10-09T02:00:03.164Z,11.27
2022-10-09T02:02:31.059Z,11.60
2022-10-09T02:04:59.643Z,9.63
2022-10-09T02:07:28.202Z,7.90
2022-10-09T02:09:57.074Z,9.93
2022-10-09T02:12:28.901Z,9.67
2022-10-09T02:14:57.003Z,10.60
2022-10-09T02:17:30.502Z,11.67
2022-10-09T02:20:04.512Z,13.33
2022-10-09T02:22:34.351Z,9.83
2022-10-09T02:25:05.149Z,14.73
2022-10-09T02:27:35.074Z,10.73
2022-10-09T02:30:03.544Z,13.10
2022-10-09T02:32:31.189Z,7.90
2022-10-09T02:34:59.085Z,9.10
2022-10-09T02:37:26.817Z,8.00
2022-10-09T02:39:54.556Z,8.70
2022-10-09T02:42:22.269Z,12.93
2022-10-09T02:44:51.310Z,15.70
2022-10-09T02:47:19.054Z,8.00
2022-10-09T02:49:46.688Z,7.70
2022-10-09T02:52:16.717Z,7.80
2022-10-09T02:54:44.572Z,12.60
2022-10-09T02:57:12.228Z,7.57
2022-10-09T02:59:39.998Z,16.87
2022-10-09T03:02:09.211Z,10.90
2022-10-09T03:04:40.474Z,12.53
2022-10-09T03:07:08.099Z,8.93
2022-10-09T03:09:35.797Z,10.90
2022-10-09T03:12:03.501Z,9.10
2022-10-09T03:14:31.099Z,10.63
2022-10-09T03:16:59.290Z,8.37
2022-10-09T03:19:28.215Z,9.20
2022-10-09T03:21:55.808Z,8.77
2022-10-09T03:24:23.743Z,9.67
2022-10-09T03:26:51.662Z,9.60
2022-10-09T03:29:19.317Z,8.03
2022-10-09T03:31:52.233Z,7.20
2022-10-09T03:34:20.769Z,14.93
2022-10-09T03:36:50.211Z,9.03
2022-10-09T03:39:17.812Z,9.00
2022-10-09T03:41:45.489Z,9.00
2022-10-09T03:44:13.329Z,9.63
2022-10-09T03:46:41.123Z,7.43
2022-10-09T03:49:09.008Z,7.57
2022-10-09T03:51:36.683Z,6.73
2022-10-09T03:54:06.296Z,9.70
2022-10-09T03:56:33.961Z,10.00
2022-10-09T03:59:01.537Z,12.50
2022-10-09T04:01:29.402Z,7.43
2022-10-09T04:03:57.168Z,8.70
2022-10-09T04:06:24.814Z,8.83
2022-10-09T04:08:52.458Z,9.60
2022-10-09T04:11:21.500Z,8.03
2022-10-09T04:13:49.354Z,10.20
2022-10-09T04:16:17.033Z,5.27
2022-10-09T04:18:45.647Z,8.50
2022-10-09T04:21:13.509Z,9.13
2022-10-09T04:23:41.331Z,6.57
2022-10-09T04:26:09.119Z,11.60
2022-10-09T04:28:38.151Z,9.27
2022-10-09T04:31:06.441Z,11.60
2022-10-09T04:33:34.118Z,7.07
2022-10-09T04:36:02.119Z,7.63
2022-10-09T04:38:32.058Z,8.33
2022-10-09T04:41:01.123Z,7.27
2022-10-09T04:43:29.839Z,14.93
2022-10-09T04:45:59.205Z,7.57
2022-10-09T04:48:27.049Z,9.73
2022-10-09T04:50:54.679Z,8.27
2022-10-09T04:53:22.296Z,8.73
2022-10-09T04:55:49.959Z,10.67
2022-10-09T04:58:17.620Z,7.63
2022-10-09T05:00:47.025Z,7.70
2022-10-09T05:03:16.178Z,6.93
2022-10-09T05:05:43.887Z,10.20
2022-10-09T05:08:11.564Z,16.43
2022-10-09T05:10:39.479Z,6.87
2022-10-09T05:13:07.384Z,7.07
2022-10-09T05:15:38.077Z,9.50
2022-10-09T05:18:05.883Z,6.63
2022-10-09T05:20:35.104Z,21.73
2022-10-09T05:23:02.759Z,7.87
2022-10-09T05:25:30.465Z,5.33
2022-10-09T05:27:58.285Z,6.47
2022-10-09T05:30:25.905Z,5.60
2022-10-09T05:32:53.538Z,8.07
2022-10-09T05:35:21.146Z,7.33
2022-10-09T05:37:50.095Z,9.00
2022-10-09T05:40:29.105Z,8.23
2022-10-09T05:42:57.041Z,10.30
2022-10-09T05:45:24.671Z,13.17
2022-10-09T05:47:52.385Z,12.60
2022-10-09T05:50:20.106Z,6.83
2022-10-09T05:52:50.385Z,14.43
2022-10-09T05:55:18.352Z,7.57
2022-10-09T05:57:47.268Z,5.03
2022-10-09T06:00:15.630Z,5.67
2022-10-09T06:02:44.231Z,4.67
2022-10-09T06:05:12.062Z,6.13
2022-10-09T06:07:39.691Z,8.93
2022-10-09T06:10:09.650Z,5.30
2022-10-09T06:12:37.282Z,4.10
2022-10-09T06:15:05.401Z,4.53
2022-10-09T06:17:33.801Z,3.80
2022-10-09T06:20:01.533Z,9.53
2022-10-09T06:22:29.197Z,5.47
2022-10-09T06:24:56.832Z,6.10
2022-10-09T06:27:26.035Z,6.20
2022-10-09T06:29:55.990Z,5.07
2022-10-09T06:32:23.593Z,4.20
2022-10-09T06:34:52.070Z,6.57
2022-10-09T06:37:19.990Z,5.57
2022-10-09T06:39:47.680Z,4.40
2022-10-09T06:42:16.628Z,6.07
2022-10-09T06:44:45.735Z,3.93
2022-10-09T06:47:13.563Z,6.90
2022-10-09T06:49:41.205Z,8.37
2022-10-09T06:52:08.873Z,4.10
2022-10-09T06:54:36.756Z,4.90
2022-10-09T06:57:04.620Z,6.00
2022-10-09T06:59:32.197Z,5.00
2022-10-09T07:02:01.612Z,5.30
2022-10-09T07:04:29.368Z,7.87
2022-10-09T07:06:57.075Z,5.07
2022-10-09T07:09:24.652Z,11.70
2022-10-09T07:11:52.277Z,5.70
2022-10-09T07:14:19.992Z,3.90
2022-10-09T07:16:49.598Z,3.70
2022-10-09T07:19:19.724Z,6.73
2022-10-09T07:21:48.916Z,8.53
2022-10-09T07:24:17.611Z,5.33
2022-10-09T07:26:47.785Z,5.67
2022-10-09T07:29:17.003Z,5.27
2022-10-09T07:31:44.885Z,6.23
2022-10-09T07:34:12.713Z,9.73
2022-10-09T07:36:41.675Z,4.90
2022-10-09T07:39:09.772Z,2.87
2022-10-09T07:41:37.952Z,6.00
2022-10-09T07:44:05.743Z,4.27
2022-10-09T07:46:34.316Z,5.27
2022-10-09T07:49:02.379Z,2.73
2022-10-09T07:51:30.895Z,6.83
2022-10-09T07:54:01.803Z,5.00
2022-10-09T07:56:31.436Z,3.20
2022-10-09T07:59:00.899Z,3.27
2022-10-09T08:01:29.748Z,3.20
2022-10-09T08:03:58.299Z,4.33
2022-10-09T08:06:26.271Z,5.73
2022-10-09T08:08:55.861Z,5.70
2022-10-09T08:11:27.196Z,3.07
2022-10-09T08:13:55.174Z,3.13
2022-10-09T08:16:24.272Z,5.63
2022-10-09T08:18:55.983Z,3.57
2022-10-09T08:21:23.812Z,2.67
2022-10-09T08:23:54.315Z,2.00
2022-10-09T08:26:25.643Z,3.63
2022-10-09T08:28:54.788Z,3.53
2022-10-09T08:31:23.547Z,7.30
2022-10-09T08:33:53.458Z,9.93
2022-10-09T08:36:21.147Z,3.30
2022-10-09T08:38:49.873Z,2.90
2022-10-09T08:41:40.659Z,3.17
2022-10-09T08:44:14.856Z,2.70
2022-10-09T08:46:52.486Z,2.70
2022-10-09T08:49:27.014Z,4.17
2022-10-09T08:51:57.881Z,3.93
2022-10-09T08:54:34.206Z,7.70
2022-10-09T08:57:06.313Z,5.90
2022-10-09T08:59:35.036Z,4.10
2022-10-09T09:02:16.835Z,2.60
2022-10-09T09:04:56.351Z,6.60
2022-10-09T09:07:35.483Z,3.00
2022-10-09T09:10:11.686Z,4.10
2022-10-09T09:12:49.881Z,6.60
2022-10-09T09:15:29.412Z,5.70
2022-10-09T09:18:10.832Z,3.33
2022-10-09T09:20:48.513Z,2.03
2022-10-09T09:23:17.367Z,2.70
2022-10-09T09:25:46.707Z,6.43
2022-10-09T09:28:21.186Z,3.87
2022-10-09T09:30:52.628Z,3.13
2022-10-09T09:33:25.646Z,3.80
2022-10-09T09:36:05.395Z,3.97
2022-10-09T09:38:33.252Z,4.13
2022-10-09T09:41:00.989Z,2.87
2022-10-09T09:43:29.943Z,2.47
2022-10-09T09:45:59.837Z,8.53
2022-10-09T09:48:34.484Z,5.50
2022-10-09T09:51:26.959Z,4.30
2022-10-09T09:53:55.205Z,4.50
2022-10-09T09:56:53.362Z,6.30
2022-10-09T09:59:36.384Z,3.83
2022-10-09T10:02:13.516Z,3.57
2022-10-09T10:04:52.530Z,2.60
2022-10-09T10:07:31.743Z,13.00
2022-10-09T10:10:06.875Z,2.20
2022-10-09T10:12:34.703Z,3.67
2022-10-09T10:15:03.730Z,2.33
2022-10-09T10:17:33.455Z,2.03
2022-10-09T10:20:06.932Z,1.93
2022-10-09T10:22:35.049Z,2.50
2022-10-09T10:25:03.035Z,3.80
2022-10-09T10:27:36.395Z,3.77
2022-10-09T10:30:08.138Z,2.10
2022-10-09T10:32:39.790Z,2.37
2022-10-09T10:35:14.694Z,3.83
2022-10-09T10:37:47.477Z,3.87
2022-10-09T10:40:21.101Z,2.13
2022-10-09T10:43:00.033Z,5.60
2022-10-09T10:45:35.373Z,4.33
2022-10-09T10:48:05.520Z,3.00
2022-10-09T10:50:39.417Z,2.53
2022-10-09T10:53:16.313Z,1.70
2022-10-09T10:55:53.001Z,2.57
2022-10-09T10:58:27.388Z,2.40
2022-10-09T11:01:12.920Z,4.60
2022-10-09T11:04:02.503Z,2.63
2022-10-09T11:06:39.083Z,2.23
2022-10-09T11:09:16.184Z,2.77
2022-10-09T11:11:52.874Z,4.70
2022-10-09T11:14:36.592Z,4.23
2022-10-09T11:17:17.707Z,4.20
2022-10-09T11:20:03.089Z,3.13
2022-10-09T11:22:43.308Z,6.20
2022-10-09T11:25:27.972Z,4.03
2022-10-09T11:27:59.860Z,3.77
2022-10-09T11:30:31.459Z,3.33
2022-10-09T11:33:07.460Z,3.23
2022-10-09T11:35:41.539Z,3.73
2022-10-09T11:38:34.315Z,3.90
2022-10-09T11:41:05.109Z,4.13
2022-10-09T11:44:05.968Z,3.73
2022-10-09T11:46:45.500Z,2.23
2022-10-09T11:49:23.878Z,6.10
2022-10-09T11:51:58.137Z,2.30
2022-10-09T11:54:27.444Z,3.13
2022-10-09T11:56:57.853Z,3.27
2022-10-09T11:59:30.281Z,2.80
2022-10-09T12:02:02.109Z,3.90
2022-10-09T12:07:34.099Z,5.23
2022-10-09T12:10:05.816Z,3.00
2022-10-09T12:12:34.693Z,2.20
2022-10-09T12:15:24.190Z,3.93
2022-10-09T12:17:52.068Z,3.97
2022-10-09T12:20:24.956Z,1.60
2022-10-09T12:23:21.706Z,2.50
2022-10-09T12:25:46.736Z,2.50
2022-10-09T12:28:26.902Z,3.00
2022-10-09T12:30:56.277Z,4.30
2022-10-09T12:33:27.458Z,2.83
2022-10-09T12:36:05.903Z,1.47
2022-10-09T12:38:33.942Z,1.77
2022-10-09T12:41:06.030Z,3.00
2022-10-09T12:43:36.274Z,1.43
2022-10-09T12:46:04.376Z,1.57
2022-10-09T12:48:37.896Z,1.40
2022-10-09T12:51:16.206Z,6.43
2022-10-09T12:53:48.997Z,3.60
2022-10-09T12:56:21.902Z,1.30
2022-10-09T12:58:50.823Z,7.60
2022-10-09T13:01:20.919Z,4.40
2022-10-09T13:03:55.513Z,4.53
2022-10-09T13:06:27.212Z,3.77
2022-10-09T13:08:57.737Z,1.30
2022-10-09T13:11:32.544Z,1.20
2022-10-09T13:14:00.744Z,2.53
2022-10-09T13:16:39.533Z,3.37
2022-10-09T13:19:23.352Z,2.20
2022-10-09T13:22:17.141Z,3.17
2022-10-09T13:24:45.140Z,2.27
2022-10-09T13:27:14.505Z,3.70
2022-10-09T13:29:43.089Z,1.70
2022-10-09T13:32:13.308Z,2.40
2022-10-09T13:34:41.124Z,2.60
2022-10-09T13:37:11.538Z,1.43
2022-10-09T13:39:39.260Z,1.17
2022-10-09T13:42:07.487Z,1.87
2022-10-09T13:44:35.120Z,1.50
2022-10-09T13:47:02.869Z,2.00
2022-10-09T13:49:30.495Z,1.93
2022-10-09T13:51:58.093Z,2.20
2022-10-09T13:54:29.639Z,2.27
2022-10-09T13:56:58.692Z,2.10
2022-10-09T13:59:26.641Z,1.10
2022-10-09T14:01:57.268Z,1.13
2022-10-09T14:04:25.060Z,3.13
2022-10-09T14:06:52.792Z,1.33
2022-10-09T14:09:20.700Z,2.50
2022-10-09T14:11:49.724Z,1.43
2022-10-09T14:14:17.439Z,3.73
2022-10-09T14:16:45.096Z,1.73
2022-10-09T14:19:12.717Z,1.67
2022-10-09T14:21:40.707Z,2.30
2022-10-09T14:24:10.013Z,1.90
2022-10-09T14:26:38.982Z,5.97
2022-10-09T14:29:07.879Z,1.90
2022-10-09T14:31:35.606Z,3.57
2022-10-09T14:34:03.545Z,2.23
2022-10-09T14:36:31.584Z,2.40
2022-10-09T14:39:00.817Z,2.20
2022-10-09T14:41:30.614Z,1.57
2022-10-09T14:44:00.884Z,2.30
2022-10-09T14:46:33.756Z,0.93
2022-10-09T14:49:07.042Z,1.33
2022-10-09T14:51:38.444Z,2.90
2022-10-09T14:54:07.002Z,3.37
2022-10-09T14:56:35.578Z,2.30
2022-10-09T14:59:03.568Z,1.53
2022-10-09T15:01:33.354Z,2.40
2022-10-09T15:04:01.628Z,7.03
2022-10-09T15:06:29.800Z,1.93
2022-10-09T15:09:03.197Z,1.67
2022-10-09T15:11:33.509Z,2.93
2022-10-09T15:14:01.121Z,1.67
2022-10-09T15:16:28.938Z,1.20
2022-10-09T15:18:58.306Z,1.10
2022-10-09T15:21:27.694Z,2.03
2022-10-09T15:23:56.448Z,1.20
2022-10-09T15:26:24.803Z,3.57
2022-10-09T15:28:52.463Z,10.20
2022-10-09T15:31:23.986Z,9.10
2022-10-09T15:33:52.184Z,2.27
2022-10-09T15:36:21.460Z,1.00
2022-10-09T15:38:49.471Z,1.90
2022-10-09T15:41:24.059Z,1.20
2022-10-09T15:43:55.295Z,2.83
2022-10-09T15:46:23.090Z,1.57
2022-10-09T15:48:51.671Z,1.40
2022-10-09T15:51:27.154Z,1.20
2022-10-09T15:53:56.321Z,1.33
2022-10-09T15:56:33.813Z,2.40
2022-10-09T15:59:04.012Z,1.27
2022-10-09T16:01:33.689Z,3.20
2022-10-09T16:04:05.801Z,1.50
2022-10-09T16:06:39.166Z,2.27
2022-10-09T16:09:13.722Z,1.53
2022-10-09T16:11:49.030Z,1.83
2022-10-09T16:14:22.730Z,1.90
2022-10-09T16:16:51.966Z,1.30
2022-10-09T16:19:20.228Z,2.60
2022-10-09T16:22:00.513Z,1.20
2022-10-09T16:24:28.650Z,1.93
2022-10-09T16:26:56.564Z,2.47
2022-10-09T16:29:36.216Z,1.70
2022-10-09T16:32:04.669Z,2.20
2022-10-09T16:34:35.806Z,2.53
2022-10-09T16:37:07.877Z,2.27
2022-10-09T16:39:38.542Z,1.93
2022-10-09T16:42:09.564Z,2.03
2022-10-09T16:44:41.366Z,1.50
2022-10-09T16:47:15.614Z,1.33
2022-10-09T16:49:53.915Z,5.53
2022-10-09T16:52:23.678Z,2.20
2022-10-09T16:54:54.942Z,1.50
2022-10-09T16:57:27.553Z,3.43
2022-10-09T16:59:55.315Z,2.00
2022-10-09T17:02:23.093Z,1.53
2022-10-09T17:04:50.890Z,4.20
2022-10-09T17:07:22.963Z,5.97
2022-10-09T17:09:53.607Z,2.07
2022-10-09T17:12:24.073Z,1.60
2022-10-09T17:14:51.942Z,3.13
2022-10-09T17:17:19.629Z,4.60
2022-10-09T17:19:47.972Z,2.10
2022-10-09T17:22:15.965Z,2.13
2022-10-09T17:24:44.187Z,2.10
2022-10-09T17:27:13.342Z,2.17
2022-10-09T17:29:41.763Z,4.40
2022-10-09T17:32:09.779Z,4.87
2022-10-09T17:34:45.788Z,3.13
2022-10-09T17:37:14.655Z,2.50
2022-10-09T17:39:45.565Z,2.70
2022-10-09T17:42:16.623Z,3.97
2022-10-09T17:44:46.970Z,7.13
2022-10-09T17:47:16.123Z,4.10
2022-10-09T17:49:45.630Z,5.07
2022-10-09T17:52:13.994Z,3.80
2022-10-09T17:54:42.377Z,6.23
2022-10-09T17:57:15.011Z,3.27
2022-10-09T17:59:46.515Z,2.67
2022-10-09T18:02:33.963Z,4.43
2022-10-09T18:05:02.204Z,3.57
2022-10-09T18:07:29.979Z,2.70
2022-10-09T18:10:09.329Z,2.87
2022-10-09T18:12:41.146Z,6.40
2022-10-09T18:15:16.785Z,3.07
2022-10-09T18:17:51.770Z,3.13
2022-10-09T18:20:19.921Z,6.43
2022-10-09T18:22:47.720Z,4.13
2022-10-09T18:25:16.437Z,4.70
2022-10-09T18:27:44.118Z,3.10
2022-10-09T18:30:16.827Z,2.90
2022-10-09T18:36:42.289Z,3.83
2022-10-09T18:39:14.574Z,3.93
2022-10-09T18:41:43.064Z,8.97
2022-10-09T18:44:17.380Z,3.83
2022-10-09T18:46:49.282Z,2.97
2022-10-09T18:49:20.086Z,4.33
2022-10-09T18:51:49.728Z,3.70
2022-10-09T18:54:20.433Z,4.70
2022-10-09T18:56:48.539Z,4.47
2022-10-09T18:59:19.299Z,5.27
2022-10-09T19:01:48.784Z,5.40
2022-10-09T19:04:16.738Z,4.90
2022-10-09T19:06:44.428Z,2.80
2022-10-09T19:09:12.247Z,3.87
2022-10-09T19:11:40.211Z,2.53
2022-10-09T19:14:07.803Z,2.90
2022-10-09T19:16:36.212Z,3.33
2022-10-09T19:19:05.396Z,4.17
2022-10-09T19:21:33.167Z,3.60
2022-10-09T19:24:03.388Z,3.70
2022-10-09T19:26:32.732Z,3.40
2022-10-09T19:29:00.992Z,7.83
2022-10-09T19:31:28.606Z,4.30
2022-10-09T19:33:56.279Z,2.90
2022-10-09T19:36:26.668Z,2.87
2022-10-09T19:38:54.839Z,4.77
2022-10-09T19:41:22.469Z,6.00
2022-10-09T19:43:50.088Z,4.27
2022-10-09T19:46:20.733Z,3.20
2022-10-09T19:48:48.547Z,6.47
2022-10-09T19:51:18.282Z,6.93
2022-10-09T19:53:51.990Z,9.50
2022-10-09T19:56:21.858Z,5.80
2022-10-09T19:58:52.480Z,3.27
2022-10-09T20:01:21.986Z,3.10
2022-10-09T20:03:54.490Z,6.50
2022-10-09T20:06:25.576Z,4.43
2022-10-09T20:08:57.473Z,4.80
2022-10-09T20:11:26.521Z,5.23
2022-10-09T20:13:56.650Z,2.73
2022-10-09T20:16:25.681Z,4.40
2022-10-09T20:18:55.161Z,3.47
2022-10-09T20:21:23.838Z,9.70
2022-10-09T20:23:51.720Z,3.33
2022-10-09T20:26:22.131Z,3.27
2022-10-09T20:28:50.666Z,8.50
2022-10-09T20:31:21.024Z,4.13
2022-10-09T20:33:50.184Z,7.00
2022-10-09T20:36:24.333Z,4.77
2022-10-09T20:38:53.496Z,8.53
2022-10-09T20:41:22.780Z,5.30
2022-10-09T20:43:52.029Z,5.13
2022-10-09T20:46:21.182Z,3.80
2022-10-09T20:48:49.653Z,3.60
2022-10-09T20:51:17.548Z,3.53
2022-10-09T20:53:45.211Z,3.53
2022-10-09T20:56:15.134Z,5.80
2022-10-09T20:58:47.037Z,4.00
2022-10-09T21:01:16.674Z,3.10
2022-10-09T21:03:45.045Z,6.67
2022-10-09T21:06:15.434Z,7.77
2022-10-09T21:08:43.163Z,3.80
2022-10-09T21:11:12.935Z,5.90
2022-10-09T21:13:41.663Z,4.60
2022-10-09T21:16:12.910Z,5.63
2022-10-09T21:18:42.574Z,6.03
2022-10-09T21:21:12.505Z,3.20
2022-10-09T21:23:40.769Z,5.10
2022-10-09T21:26:12.584Z,6.03
2022-10-09T21:28:40.264Z,8.53
2022-10-09T21:31:11.221Z,4.43
2022-10-09T21:33:39.034Z,6.03
2022-10-09T21:36:11.228Z,3.60
2022-10-09T21:38:39.084Z,4.13
2022-10-09T21:41:06.763Z,4.33
2022-10-09T21:43:34.445Z,6.63
2022-10-09T21:46:02.192Z,3.77
2022-10-09T21:48:31.408Z,5.87
2022-10-09T21:50:59.013Z,5.47
2022-10-09T21:53:26.815Z,3.80
2022-10-09T21:55:54.431Z,3.73
2022-10-09T21:58:24.237Z,4.87
2022-10-09T22:00:57.096Z,4.80
2022-10-09T22:03:25.656Z,6.03
2022-10-09T22:05:54.941Z,3.47
2022-10-09T22:08:23.137Z,6.40
2022-10-09T22:10:51.360Z,3.73
2022-10-09T22:13:19.714Z,3.33
2022-10-09T22:15:50.948Z,7.07
2022-10-09T22:18:19.125Z,5.70
2022-10-09T22:20:49.348Z,6.87
2022-10-09T22:23:19.365Z,3.00
2022-10-09T22:25:57.088Z,2.83
2022-10-09T22:28:24.987Z,6.87
2022-10-09T22:31:01.928Z,4.07
2022-10-09T22:33:29.818Z,5.80
2022-10-09T22:36:06.995Z,5.30
2022-10-09T22:38:37.126Z,6.07
2022-10-09T22:41:06.809Z,4.83
2022-10-09T22:43:34.728Z,3.37
2022-10-09T22:46:05.917Z,3.47
2022-10-09T22:48:35.107Z,5.17
2022-10-09T22:51:04.589Z,2.77
2022-10-09T22:53:32.376Z,6.87
2022-10-09T22:56:01.609Z,3.87
2022-10-09T22:58:29.381Z,5.23
2022-10-09T23:00:57.252Z,4.80
2022-10-09T23:03:24.933Z,5.07
2022-10-09T23:05:52.616Z,5.27
2022-10-09T23:08:20.132Z,3.53
2022-10-09T23:10:47.745Z,5.83
2022-10-09T23:13:16.705Z,3.87
2022-10-09T23:15:44.494Z,3.30
2022-10-09T23:18:12.145Z,5.00
2022-10-09T23:20:39.800Z,6.17
2022-10-09T23:23:07.746Z,4.43
2022-10-09T23:25:35.432Z,5.23
2022-10-09T23:28:03.144Z,9.30
2022-10-09T23:30:32.846Z,10.03
2022-10-09T23:33:00.419Z,3.70
2022-10-09T23:35:28.501Z,4.47
2022-10-09T23:37:56.439Z,3.93
2022-10-09T23:40:24.164Z,8.23
2022-10-09T23:42:52.319Z,14.10
2022-10-09T23:45:20.242Z,4.63
2022-10-09T23:47:49.151Z,4.40
2022-10-09T23:50:16.918Z,3.10
2022-10-09T23:52:44.617Z,3.20
2022-10-09T23:55:12.284Z,7.40
2022-10-09T23:57:40.001Z,5.57
